No.8 Myoushou Maru — JH3281 — position and weather

sailwx.info

Track history (hours):
 
Tides and Currents Weather Stations Pressure Air Temp Water Temp Dewpoint Dewpoint Depression Visibility Wind Speed Wind Dir Waves Ship Positions

No.8 Myoushou Maru

Last reported at 2017-Oct-17 11:48 UTC. Time now 2017-Oct-17 13:01 UTC.
Position N 35°29' E 139°42'.

Length 71 m; draft 4 m.

Type: Tanker. MMSI: 431000594.

Date/timePositionNaut miles runAvg speedWind from/ knotsBaromVisibWave heightAir tempDewpointWater temp
2017-Oct-17 11:48N 35°29' E 139°42'0 0.0
2017-Oct-17 11:18N 35°29' E 139°42'0 0.0
2017-Oct-17 10:48N 35°29' E 139°42'0 0.0
2017-Oct-17 10:24N 35°29' E 139°42'0 0.0
2017-Oct-17 09:54N 35°29' E 139°42'0 0.0
2017-Oct-17 09:18N 35°29' E 139°42'0 0.0
2017-Oct-17 09:00N 35°29' E 139°42'0 0.0
2017-Oct-17 08:27N 35°29' E 139°42'1 3.4
2017-Oct-17 08:00N 35°28' E 139°43'510.0
2017-Oct-17 07:30N 35°29' E 139°49'3 0.1
2017-Oct-16 09:12N 35°31' E 139°50'2 9.4
2017-Oct-16 09:00N 35°30' E 139°48'2 4.1
2017-Oct-16 08:30N 35°31' E 139°46'0 0.0
2017-Oct-16 08:00N 35°31' E 139°46'0 0.0
2017-Oct-16 07:31N 35°31' E 139°46'0 0.0
2017-Oct-16 07:00N 35°31' E 139°46'0 0.0
2017-Oct-16 06:30N 35°31' E 139°46'0 0.0
2017-Oct-16 06:00N 35°31' E 139°46'0 0.0
2017-Oct-16 05:31N 35°31' E 139°46'0 0.0
2017-Oct-16 05:01N 35°31' E 139°46'0 0.0
2017-Oct-16 04:31N 35°31' E 139°46'0 0.0
2017-Oct-16 04:01N 35°31' E 139°46'0 0.0
2017-Oct-16 03:31N 35°31' E 139°46'2 3.4
2017-Oct-16 02:59N 35°30' E 139°48'510.7
2017-Oct-16 02:31N 35°26' E 139°44'4 7.4
2017-Oct-16 02:01N 35°24' E 139°40'0 0.0
2017-Oct-16 01:30N 35°24' E 139°40'0 0.0
2017-Oct-16 01:01N 35°24' E 139°40'0 0.0
2017-Oct-16 00:30N 35°24' E 139°40'0 0.0
2017-Oct-16 00:00N 35°24' E 139°40'0 0.5
2017-Oct-15 23:30N 35°24' E 139°40'1 1.1
2017-Oct-15 23:00N 35°24' E 139°40'4 7.5
2017-Oct-15 22:31N 35°26' E 139°43'3 5.2
2017-Oct-15 22:00N 35°29' E 139°42'0 0.0
2017-Oct-15 21:25N 35°29' E 139°42'0 0.0
2017-Oct-15 20:52N 35°29' E 139°42'0 0.0
2017-Oct-15 20:16N 35°29' E 139°42'0 0.0
2017-Oct-15 19:58N 35°29' E 139°42'0 0.0
2017-Oct-15 19:22N 35°29' E 139°42'0 0.0
2017-Oct-15 18:49N 35°29' E 139°42'0 0.0
2017-Oct-15 18:28N 35°29' E 139°42'0 0.0
2017-Oct-15 17:58N 35°29' E 139°42'0 0.0
2017-Oct-15 17:22N 35°29' E 139°42'0 0.0
2017-Oct-15 16:58N 35°29' E 139°42'0 0.0
2017-Oct-15 16:25N 35°29' E 139°42'0 0.0
2017-Oct-15 15:55N 35°29' E 139°42'0 0.0
2017-Oct-15 15:28N 35°29' E 139°42'0 0.0
2017-Oct-15 14:46N 35°29' E 139°42'0 0.0
2017-Oct-15 13:58N 35°29' E 139°42'0 0.0
2017-Oct-15 13:16N 35°29' E 139°42'0 0.0
2017-Oct-15 12:58N 35°29' E 139°42'0 0.0
2017-Oct-15 12:22N 35°29' E 139°42'0 0.0
2017-Oct-15 11:58N 35°29' E 139°42'0 0.0
2017-Oct-15 10:34N 35°29' E 139°42'0 0.0
2017-Oct-15 10:16N 35°29' E 139°42'0 0.0
2017-Oct-15 09:52N 35°29' E 139°42'0 0.0
2017-Oct-15 09:25N 35°29' E 139°42'0 0.0
2017-Oct-15 08:58N 35°29' E 139°42'0 0.0
2017-Oct-15 08:28N 35°29' E 139°42'0 0.0
2017-Oct-15 08:01N 35°29' E 139°42'3 6.6
2017-Oct-15 07:30N 35°30' E 139°45'1 1.9
2017-Oct-15 07:00N 35°31' E 139°46'0 0.0
2017-Oct-15 06:30N 35°31' E 139°46'0 0.0
2017-Oct-15 06:00N 35°31' E 139°46'0 0.0
2017-Oct-15 05:30N 35°31' E 139°46'0 0.0
2017-Oct-15 05:01N 35°31' E 139°46'0 0.0
2017-Oct-15 04:30N 35°31' E 139°46'0 0.0
2017-Oct-15 04:00N 35°31' E 139°46'0 0.0
2017-Oct-15 03:31N 35°31' E 139°46'0 0.0
2017-Oct-15 03:00N 35°31' E 139°46'2 3.1
2017-Oct-15 02:29N 35°30' E 139°48'2 0.1
2017-Oct-14 04:16N 35°31' E 139°51'3 9.6
2017-Oct-14 04:00N 35°30' E 139°48'2 3.5
2017-Oct-14 03:30N 35°31' E 139°46'0 0.0
2017-Oct-14 03:00N 35°31' E 139°46'0 0.0
2017-Oct-14 02:30N 35°31' E 139°46'0 0.0
2017-Oct-14 02:00N 35°31' E 139°46'0 0.0
2017-Oct-14 01:30N 35°31' E 139°46'0 0.0
2017-Oct-14 01:00N 35°31' E 139°46'0 0.0
2017-Oct-14 00:30N 35°31' E 139°46'0 0.0
2017-Oct-14 00:00N 35°31' E 139°46'1 1.3
2017-Oct-13 23:30N 35°31' E 139°46'4 7.7
2017-Oct-13 23:00N 35°29' E 139°42'0 0.0
2017-Oct-13 15:49N 35°29' E 139°42'0 0.0
2017-Oct-13 07:13N 35°29' E 139°42'0 0.0
2017-Oct-13 03:59N 35°29' E 139°42'0 0.0
2017-Oct-13 03:31N 35°29' E 139°42'0 0.0
2017-Oct-13 03:00N 35°29' E 139°42'0 0.0
2017-Oct-13 02:30N 35°29' E 139°42'0 0.2
2017-Oct-13 02:01N 35°29' E 139°42'5 9.2
2017-Oct-13 01:31N 35°29' E 139°47'712.8
2017-Oct-13 01:00N 35°33' E 139°53'5 1.4
2017-Oct-12 21:10N 35°37' E 139°57'3 9.2
2017-Oct-12 20:54N 35°36' E 139°54'6 0.7
2017-Oct-12 11:16N 35°31' E 139°49'3 9.6
2017-Oct-12 11:00N 35°31' E 139°46'1 1.5
2017-Oct-12 10:30N 35°31' E 139°46'0 0.0
2017-Oct-12 10:00N 35°31' E 139°46'0 0.0
2017-Oct-12 09:30N 35°31' E 139°46'0 0.0
2017-Oct-12 09:00N 35°31' E 139°46'0 0.0
2017-Oct-12 08:30N 35°31' E 139°46'0 0.0
2017-Oct-12 08:00N 35°31' E 139°46'0 0.0
2017-Oct-12 07:30N 35°31' E 139°46'0 0.0
2017-Oct-12 07:00N 35°31' E 139°46'0 0.0
2017-Oct-12 06:30N 35°31' E 139°46'0 0.0
2017-Oct-12 06:01N 35°31' E 139°46'0 0.1
2017-Oct-12 05:31N 35°31' E 139°46'3 5.5
2017-Oct-12 05:01N 35°30' E 139°49'1 1.5
2017-Oct-12 04:26N 35°31' E 139°50'0 0.1
2017-Oct-12 02:57N 35°30' E 139°50'11 0.4
2017-Oct-10 23:08N 35°24' E 139°40'0 2.6
2017-Oct-10 22:57N 35°24' E 139°40'2 4.1
2017-Oct-10 22:30N 35°24' E 139°42'7 0.5
2017-Oct-10 07:39N 35°31' E 139°46'0 0.0
2017-Oct-10 07:30N 35°31' E 139°46'0 0.0
2017-Oct-10 07:00N 35°31' E 139°46'0 0.0
2017-Oct-10 06:30N 35°31' E 139°46'0 0.0
2017-Oct-10 06:00N 35°31' E 139°46'0 0.0
2017-Oct-10 05:30N 35°31' E 139°46'0 0.0
2017-Oct-10 05:00N 35°31' E 139°46'0 0.0
2017-Oct-10 04:30N 35°31' E 139°46'0 0.0
2017-Oct-10 04:00N 35°31' E 139°46'0 0.0
2017-Oct-10 03:30N 35°31' E 139°46'0 0.0
2017-Oct-10 03:00N 35°31' E 139°46'0 0.0
2017-Oct-10 02:30N 35°31' E 139°46'4 7.5
2017-Oct-10 02:00N 35°27' E 139°45'510.4
2017-Oct-10 01:30N 35°24' E 139°40'1 1.8
2017-Oct-10 01:00N 35°25' E 139°39'0 0.0
2017-Oct-10 00:30N 35°25' E 139°39'0 0.0
2017-Oct-10 00:00N 35°25' E 139°39'0 0.0
2017-Oct-09 23:30N 35°25' E 139°39'1 2.9
2017-Oct-09 23:00N 35°23' E 139°41'4 7.1
2017-Oct-09 22:30N 35°26' E 139°43'3 0.1
2017-Oct-08 21:00N 35°29' E 139°42'0 0.0
2017-Oct-08 20:30N 35°29' E 139°42'0 0.0
2017-Oct-08 20:00N 35°29' E 139°42'0 0.0
2017-Oct-08 19:30N 35°29' E 139°42'0 0.0
2017-Oct-08 19:00N 35°29' E 139°42'0 0.0
2017-Oct-08 18:30N 35°29' E 139°42'0 0.0
2017-Oct-08 18:00N 35°29' E 139°42'0 0.0
2017-Oct-08 17:30N 35°29' E 139°42'0 0.0
2017-Oct-08 17:00N 35°29' E 139°42'0 0.0
2017-Oct-08 16:30N 35°29' E 139°42'0 0.0
2017-Oct-08 16:00N 35°29' E 139°42'0 0.0
2017-Oct-08 15:30N 35°29' E 139°42'0 0.0
2017-Oct-08 15:00N 35°29' E 139°42'0 0.0
2017-Oct-08 14:30N 35°29' E 139°42'0 0.0
2017-Oct-08 14:00N 35°29' E 139°42'0 0.0
2017-Oct-08 13:30N 35°29' E 139°42'0 0.0
2017-Oct-08 13:00N 35°29' E 139°42'0 0.0
2017-Oct-08 12:30N 35°29' E 139°42'0 0.0
2017-Oct-08 12:00N 35°29' E 139°42'0 0.0
2017-Oct-08 11:30N 35°29' E 139°42'0 0.0
2017-Oct-08 11:00N 35°29' E 139°42'0 0.0
2017-Oct-08 10:30N 35°29' E 139°42'0 0.0
2017-Oct-08 10:00N 35°29' E 139°42'0 0.0
2017-Oct-08 09:30N 35°29' E 139°42'0 0.0
2017-Oct-08 09:00N 35°29' E 139°42'0 0.0
2017-Oct-08 08:30N 35°29' E 139°42'0 0.2
2017-Oct-08 08:00N 35°29' E 139°42'510.8
2017-Oct-08 07:30N 35°24' E 139°41'2 3.4
2017-Oct-08 07:00N 35°24' E 139°40'0 0.0
2017-Oct-08 06:30N 35°24' E 139°40'0 0.0
2017-Oct-08 06:00N 35°24' E 139°40'0 0.0
2017-Oct-08 05:30N 35°24' E 139°40'0 0.0
2017-Oct-08 05:00N 35°24' E 139°40'0 0.0
2017-Oct-08 04:30N 35°24' E 139°40'3 6.8
2017-Oct-08 04:00N 35°26' E 139°43'510.9
2017-Oct-08 03:30N 35°30' E 139°47'2 3.2
2017-Oct-08 03:00N 35°31' E 139°46'0 0.0
2017-Oct-08 02:30N 35°31' E 139°46'0 0.0
2017-Oct-08 02:01N 35°31' E 139°46'0 0.0
2017-Oct-08 01:30N 35°31' E 139°46'0 0.0
2017-Oct-08 01:00N 35°31' E 139°46'0 0.0
2017-Oct-08 00:30N 35°31' E 139°46'0 0.0
2017-Oct-08 00:00N 35°31' E 139°46'0 0.0
2017-Oct-07 23:30N 35°31' E 139°46'0 0.0
2017-Oct-07 23:00N 35°31' E 139°46'0 0.1
2017-Oct-07 22:31N 35°31' E 139°46'3 6.2
2017-Oct-07 22:01N 35°29' E 139°43'1 2.2
2017-Oct-07 21:30N 35°29' E 139°42'0 0.0
2017-Oct-07 21:00N 35°29' E 139°42'0 0.0
2017-Oct-07 20:30N 35°29' E 139°42'0 0.0
2017-Oct-07 20:00N 35°29' E 139°42'0 0.0
2017-Oct-07 19:30N 35°29' E 139°42'0 0.0
2017-Oct-07 19:01N 35°29' E 139°42'0 0.0
2017-Oct-07 18:31N 35°29' E 139°42'0 0.0
2017-Oct-07 18:00N 35°29' E 139°42'0 0.0
2017-Oct-07 17:31N 35°29' E 139°42'0 0.0
2017-Oct-07 17:00N 35°29' E 139°42'0 0.0
2017-Oct-07 16:30N 35°29' E 139°42'0 0.0
2017-Oct-07 16:00N 35°29' E 139°42'0 0.0
2017-Oct-07 15:30N 35°29' E 139°42'0 0.0
2017-Oct-07 15:00N 35°29' E 139°42'0 0.0
2017-Oct-07 14:30N 35°29' E 139°42'0 0.0
2017-Oct-07 14:00N 35°29' E 139°42'0 0.0
2017-Oct-07 13:30N 35°29' E 139°42'0 0.0
2017-Oct-07 13:00N 35°29' E 139°42'0 0.0
2017-Oct-07 12:31N 35°29' E 139°42'0 0.0
2017-Oct-07 12:00N 35°29' E 139°42'  
Track history (hours):
 
Tides and Currents Weather Stations Pressure Air Temp Water Temp Dewpoint Dewpoint Depression Visibility Wind Speed Wind Dir Waves Ship Positions

No.8 Myoushou Maru

Last reported at 2017-Oct-17 11:48 UTC. Time now 2017-Oct-17 13:01 UTC.
Position N 35°29' E 139°42'.

Length 71 m; draft 4 m.

Type: Tanker. MMSI: 431000594.

Date/timePositionNaut miles runAvg speedWind from/ knotsBaromVisibWave heightAir tempDewpointWater temp
2017-Oct-17 11:48N 35°29' E 139°42'0 0.0
2017-Oct-17 11:18N 35°29' E 139°42'0 0.0
2017-Oct-17 10:48N 35°29' E 139°42'0 0.0
2017-Oct-17 10:24N 35°29' E 139°42'0 0.0
2017-Oct-17 09:54N 35°29' E 139°42'0 0.0
2017-Oct-17 09:18N 35°29' E 139°42'0 0.0
2017-Oct-17 09:00N 35°29' E 139°42'0 0.0
2017-Oct-17 08:27N 35°29' E 139°42'1 3.4
2017-Oct-17 08:00N 35°28' E 139°43'510.0
2017-Oct-17 07:30N 35°29' E 139°49'3 0.1
2017-Oct-16 09:12N 35°31' E 139°50'2 9.4
2017-Oct-16 09:00N 35°30' E 139°48'2 4.1
2017-Oct-16 08:30N 35°31' E 139°46'0 0.0
2017-Oct-16 08:00N 35°31' E 139°46'0 0.0
2017-Oct-16 07:31N 35°31' E 139°46'0 0.0
2017-Oct-16 07:00N 35°31' E 139°46'0 0.0
2017-Oct-16 06:30N 35°31' E 139°46'0 0.0
2017-Oct-16 06:00N 35°31' E 139°46'0 0.0
2017-Oct-16 05:31N 35°31' E 139°46'0 0.0
2017-Oct-16 05:01N 35°31' E 139°46'0 0.0
2017-Oct-16 04:31N 35°31' E 139°46'0 0.0
2017-Oct-16 04:01N 35°31' E 139°46'0 0.0
2017-Oct-16 03:31N 35°31' E 139°46'2 3.4
2017-Oct-16 02:59N 35°30' E 139°48'510.7
2017-Oct-16 02:31N 35°26' E 139°44'4 7.4
2017-Oct-16 02:01N 35°24' E 139°40'0 0.0
2017-Oct-16 01:30N 35°24' E 139°40'0 0.0
2017-Oct-16 01:01N 35°24' E 139°40'0 0.0
2017-Oct-16 00:30N 35°24' E 139°40'0 0.0
2017-Oct-16 00:00N 35°24' E 139°40'0 0.5
2017-Oct-15 23:30N 35°24' E 139°40'1 1.1
2017-Oct-15 23:00N 35°24' E 139°40'4 7.5
2017-Oct-15 22:31N 35°26' E 139°43'3 5.2
2017-Oct-15 22:00N 35°29' E 139°42'0 0.0
2017-Oct-15 21:25N 35°29' E 139°42'0 0.0
2017-Oct-15 20:52N 35°29' E 139°42'0 0.0
2017-Oct-15 20:16N 35°29' E 139°42'0 0.0
2017-Oct-15 19:58N 35°29' E 139°42'0 0.0
2017-Oct-15 19:22N 35°29' E 139°42'0 0.0
2017-Oct-15 18:49N 35°29' E 139°42'0 0.0
2017-Oct-15 18:28N 35°29' E 139°42'0 0.0
2017-Oct-15 17:58N 35°29' E 139°42'0 0.0
2017-Oct-15 17:22N 35°29' E 139°42'0 0.0
2017-Oct-15 16:58N 35°29' E 139°42'0 0.0
2017-Oct-15 16:25N 35°29' E 139°42'0 0.0
2017-Oct-15 15:55N 35°29' E 139°42'0 0.0
2017-Oct-15 15:28N 35°29' E 139°42'0 0.0
2017-Oct-15 14:46N 35°29' E 139°42'0 0.0
2017-Oct-15 13:58N 35°29' E 139°42'0 0.0
2017-Oct-15 13:16N 35°29' E 139°42'0 0.0
2017-Oct-15 12:58N 35°29' E 139°42'0 0.0
2017-Oct-15 12:22N 35°29' E 139°42'0 0.0
2017-Oct-15 11:58N 35°29' E 139°42'0 0.0
2017-Oct-15 10:34N 35°29' E 139°42'0 0.0
2017-Oct-15 10:16N 35°29' E 139°42'0 0.0
2017-Oct-15 09:52N 35°29' E 139°42'0 0.0
2017-Oct-15 09:25N 35°29' E 139°42'0 0.0
2017-Oct-15 08:58N 35°29' E 139°42'0 0.0
2017-Oct-15 08:28N 35°29' E 139°42'0 0.0
2017-Oct-15 08:01N 35°29' E 139°42'3 6.6
2017-Oct-15 07:30N 35°30' E 139°45'1 1.9
2017-Oct-15 07:00N 35°31' E 139°46'0 0.0
2017-Oct-15 06:30N 35°31' E 139°46'0 0.0
2017-Oct-15 06:00N 35°31' E 139°46'0 0.0
2017-Oct-15 05:30N 35°31' E 139°46'0 0.0
2017-Oct-15 05:01N 35°31' E 139°46'0 0.0
2017-Oct-15 04:30N 35°31' E 139°46'0 0.0
2017-Oct-15 04:00N 35°31' E 139°46'0 0.0
2017-Oct-15 03:31N 35°31' E 139°46'0 0.0
2017-Oct-15 03:00N 35°31' E 139°46'2 3.1
2017-Oct-15 02:29N 35°30' E 139°48'2 0.1
2017-Oct-14 04:16N 35°31' E 139°51'3 9.6
2017-Oct-14 04:00N 35°30' E 139°48'2 3.5
2017-Oct-14 03:30N 35°31' E 139°46'0 0.0
2017-Oct-14 03:00N 35°31' E 139°46'0 0.0
2017-Oct-14 02:30N 35°31' E 139°46'0 0.0
2017-Oct-14 02:00N 35°31' E 139°46'0 0.0
2017-Oct-14 01:30N 35°31' E 139°46'0 0.0
2017-Oct-14 01:00N 35°31' E 139°46'0 0.0
2017-Oct-14 00:30N 35°31' E 139°46'0 0.0
2017-Oct-14 00:00N 35°31' E 139°46'1 1.3
2017-Oct-13 23:30N 35°31' E 139°46'4 7.7
2017-Oct-13 23:00N 35°29' E 139°42'0 0.0
2017-Oct-13 15:49N 35°29' E 139°42'0 0.0
2017-Oct-13 07:13N 35°29' E 139°42'0 0.0
2017-Oct-13 03:59N 35°29' E 139°42'0 0.0
2017-Oct-13 03:31N 35°29' E 139°42'0 0.0
2017-Oct-13 03:00N 35°29' E 139°42'0 0.0
2017-Oct-13 02:30N 35°29' E 139°42'0 0.2
2017-Oct-13 02:01N 35°29' E 139°42'5 9.2
2017-Oct-13 01:31N 35°29' E 139°47'712.8
2017-Oct-13 01:00N 35°33' E 139°53'5 1.4
2017-Oct-12 21:10N 35°37' E 139°57'3 9.2
2017-Oct-12 20:54N 35°36' E 139°54'6 0.7
2017-Oct-12 11:16N 35°31' E 139°49'3 9.6
2017-Oct-12 11:00N 35°31' E 139°46'1 1.5
2017-Oct-12 10:30N 35°31' E 139°46'0 0.0
2017-Oct-12 10:00N 35°31' E 139°46'0 0.0
2017-Oct-12 09:30N 35°31' E 139°46'0 0.0
2017-Oct-12 09:00N 35°31' E 139°46'0 0.0
2017-Oct-12 08:30N 35°31' E 139°46'0 0.0
2017-Oct-12 08:00N 35°31' E 139°46'0 0.0
2017-Oct-12 07:30N 35°31' E 139°46'0 0.0
2017-Oct-12 07:00N 35°31' E 139°46'0 0.0
2017-Oct-12 06:30N 35°31' E 139°46'0 0.0
2017-Oct-12 06:01N 35°31' E 139°46'0 0.1
2017-Oct-12 05:31N 35°31' E 139°46'3 5.5
2017-Oct-12 05:01N 35°30' E 139°49'1 1.5
2017-Oct-12 04:26N 35°31' E 139°50'0 0.1
2017-Oct-12 02:57N 35°30' E 139°50'11 0.4
2017-Oct-10 23:08N 35°24' E 139°40'0 2.6
2017-Oct-10 22:57N 35°24' E 139°40'2 4.1
2017-Oct-10 22:30N 35°24' E 139°42'7 0.5
2017-Oct-10 07:39N 35°31' E 139°46'0 0.0
2017-Oct-10 07:30N 35°31' E 139°46'0 0.0
2017-Oct-10 07:00N 35°31' E 139°46'0 0.0
2017-Oct-10 06:30N 35°31' E 139°46'0 0.0
2017-Oct-10 06:00N 35°31' E 139°46'0 0.0
2017-Oct-10 05:30N 35°31' E 139°46'0 0.0
2017-Oct-10 05:00N 35°31' E 139°46'0 0.0
2017-Oct-10 04:30N 35°31' E 139°46'0 0.0
2017-Oct-10 04:00N 35°31' E 139°46'0 0.0
2017-Oct-10 03:30N 35°31' E 139°46'0 0.0
2017-Oct-10 03:00N 35°31' E 139°46'0 0.0
2017-Oct-10 02:30N 35°31' E 139°46'4 7.5
2017-Oct-10 02:00N 35°27' E 139°45'510.4
2017-Oct-10 01:30N 35°24' E 139°40'1 1.8
2017-Oct-10 01:00N 35°25' E 139°39'0 0.0
2017-Oct-10 00:30N 35°25' E 139°39'0 0.0
2017-Oct-10 00:00N 35°25' E 139°39'0 0.0
2017-Oct-09 23:30N 35°25' E 139°39'1 2.9
2017-Oct-09 23:00N 35°23' E 139°41'4 7.1
2017-Oct-09 22:30N 35°26' E 139°43'3 0.1
2017-Oct-08 21:00N 35°29' E 139°42'0 0.0
2017-Oct-08 20:30N 35°29' E 139°42'0 0.0
2017-Oct-08 20:00N 35°29' E 139°42'0 0.0
2017-Oct-08 19:30N 35°29' E 139°42'0 0.0
2017-Oct-08 19:00N 35°29' E 139°42'0 0.0
2017-Oct-08 18:30N 35°29' E 139°42'0 0.0
2017-Oct-08 18:00N 35°29' E 139°42'0 0.0
2017-Oct-08 17:30N 35°29' E 139°42'0 0.0
2017-Oct-08 17:00N 35°29' E 139°42'0 0.0
2017-Oct-08 16:30N 35°29' E 139°42'0 0.0
2017-Oct-08 16:00N 35°29' E 139°42'0 0.0
2017-Oct-08 15:30N 35°29' E 139°42'0 0.0
2017-Oct-08 15:00N 35°29' E 139°42'0 0.0
2017-Oct-08 14:30N 35°29' E 139°42'0 0.0
2017-Oct-08 14:00N 35°29' E 139°42'0 0.0
2017-Oct-08 13:30N 35°29' E 139°42'0 0.0
2017-Oct-08 13:00N 35°29' E 139°42'0 0.0
2017-Oct-08 12:30N 35°29' E 139°42'0 0.0
2017-Oct-08 12:00N 35°29' E 139°42'0 0.0
2017-Oct-08 11:30N 35°29' E 139°42'0 0.0
2017-Oct-08 11:00N 35°29' E 139°42'0 0.0
2017-Oct-08 10:30N 35°29' E 139°42'0 0.0
2017-Oct-08 10:00N 35°29' E 139°42'0 0.0
2017-Oct-08 09:30N 35°29' E 139°42'0 0.0
2017-Oct-08 09:00N 35°29' E 139°42'0 0.0
2017-Oct-08 08:30N 35°29' E 139°42'0 0.2
2017-Oct-08 08:00N 35°29' E 139°42'510.8
2017-Oct-08 07:30N 35°24' E 139°41'2 3.4
2017-Oct-08 07:00N 35°24' E 139°40'0 0.0
2017-Oct-08 06:30N 35°24' E 139°40'0 0.0
2017-Oct-08 06:00N 35°24' E 139°40'0 0.0
2017-Oct-08 05:30N 35°24' E 139°40'0 0.0
2017-Oct-08 05:00N 35°24' E 139°40'0 0.0
2017-Oct-08 04:30N 35°24' E 139°40'3 6.8
2017-Oct-08 04:00N 35°26' E 139°43'510.9
2017-Oct-08 03:30N 35°30' E 139°47'2 3.2
2017-Oct-08 03:00N 35°31' E 139°46'0 0.0
2017-Oct-08 02:30N 35°31' E 139°46'0 0.0
2017-Oct-08 02:01N 35°31' E 139°46'0 0.0
2017-Oct-08 01:30N 35°31' E 139°46'0 0.0
2017-Oct-08 01:00N 35°31' E 139°46'0 0.0
2017-Oct-08 00:30N 35°31' E 139°46'0 0.0
2017-Oct-08 00:00N 35°31' E 139°46'0 0.0
2017-Oct-07 23:30N 35°31' E 139°46'0 0.0
2017-Oct-07 23:00N 35°31' E 139°46'0 0.1
2017-Oct-07 22:31N 35°31' E 139°46'3 6.2
2017-Oct-07 22:01N 35°29' E 139°43'1 2.2
2017-Oct-07 21:30N 35°29' E 139°42'0 0.0
2017-Oct-07 21:00N 35°29' E 139°42'0 0.0
2017-Oct-07 20:30N 35°29' E 139°42'0 0.0
2017-Oct-07 20:00N 35°29' E 139°42'0 0.0
2017-Oct-07 19:30N 35°29' E 139°42'0 0.0
2017-Oct-07 19:01N 35°29' E 139°42'0 0.0
2017-Oct-07 18:31N 35°29' E 139°42'0 0.0
2017-Oct-07 18:00N 35°29' E 139°42'0 0.0
2017-Oct-07 17:31N 35°29' E 139°42'0 0.0
2017-Oct-07 17:00N 35°29' E 139°42'0 0.0
2017-Oct-07 16:30N 35°29' E 139°42'0 0.0
2017-Oct-07 16:00N 35°29' E 139°42'0 0.0
2017-Oct-07 15:30N 35°29' E 139°42'0 0.0
2017-Oct-07 15:00N 35°29' E 139°42'0 0.0
2017-Oct-07 14:30N 35°29' E 139°42'0 0.0
2017-Oct-07 14:00N 35°29' E 139°42'0 0.0
2017-Oct-07 13:30N 35°29' E 139°42'0 0.0
2017-Oct-07 13:00N 35°29' E 139°42'0 0.0
2017-Oct-07 12:31N 35°29' E 139°42'0 0.0
2017-Oct-07 12:00N 35°29' E 139°42'  

Dump ship's entire track history